Time;durP1;ratioP1;P1;durP2;ratioP2;P2;SDS_P1;SDS_P2;PMS_P1;PMS_P2;Temp;Humidity;BMP_temperature;BMP_pressure;BME280_temperature;BME280_humidity;BME280_pressure;Samples;Min_cycle;Max_cycle;Signal;HPM_P1;HPM_P2
2023/03/15 00:00:41;;;;;;;;;;;2.50;99.90;;;;;;4988563;28;206601;-70
2023/03/15 00:03:07;;;;;;;;;;;2.40;99.90;;;;;;5060186;28;20310;-72
2023/03/15 00:05:33;;;;;;;;;;;2.40;99.90;;;;;;4974105;28;192197;-70
2023/03/15 00:07:59;;;;;;;;;;;2.40;99.90;;;;;;5077481;28;19931;-70
2023/03/15 00:10:25;;;;;;;;;;;2.40;99.90;;;;;;5014801;28;208505;-71
2023/03/15 00:12:51;;;;;;;;;;;2.50;99.90;;;;;;5073282;28;19927;-71
2023/03/15 00:15:17;;;;;;;;;;;2.50;99.90;;;;;;5013949;28;208139;-71
2023/03/15 00:17:43;;;;;;;;;;;2.40;99.90;;;;;;5054349;28;19947;-72
2023/03/15 00:20:10;;;;;;;;;;;2.50;99.90;;;;;;4998214;28;207159;-70
2023/03/15 00:22:36;;;;;;;;;;;2.50;99.90;;;;;;5056069;28;19924;-71
2023/03/15 00:25:02;;;;;;;;;;;2.50;99.90;;;;;;5003469;28;209079;-71
2023/03/15 00:27:27;;;;;;;;;;;2.50;99.90;;;;;;5056116;28;20296;-70
2023/03/15 00:29:53;;;;;;;;;;;2.60;99.90;;;;;;5013244;28;210296;-71
2023/03/15 00:32:19;;;;;;;;;;;2.60;99.90;;;;;;5061504;28;19932;-71
2023/03/15 00:34:47;;;;;;;;;;;2.60;99.90;;;;;;4996765;28;208203;-71
2023/03/15 00:37:15;;;;;;;;;;;2.60;99.90;;;;;;5046974;28;19932;-70
2023/03/15 00:39:44;;;;;;;;;;;2.60;99.90;;;;;;4990743;28;206548;-71
2023/03/15 00:42:10;;;;;;;;;;;2.50;99.90;;;;;;5050100;28;21250;-70
2023/03/15 00:44:36;;;;;;;;;;;2.50;99.90;;;;;;5015876;28;206486;-71
2023/03/15 00:47:02;;;;;;;;;;;2.50;99.90;;;;;;5067649;28;19936;-71
2023/03/15 00:49:28;;;;;;;;;;;2.50;99.90;;;;;;5007716;28;208137;-70
2023/03/15 00:51:54;;;;;;;;;;;2.50;99.90;;;;;;5081306;28;20857;-71
2023/03/15 00:54:22;;;;;;;;;;;2.50;99.90;;;;;;5020402;28;208624;-70
2023/03/15 00:56:48;;;;;;;;;;;2.40;99.90;;;;;;5086872;28;19931;-70
2023/03/15 00:59:14;;;;;;;;;;;2.40;99.90;;;;;;5023443;28;207125;-70
2023/03/15 01:01:43;;;;;;;;;;;2.30;99.90;;;;;;5063418;28;19927;-70
2023/03/15 01:04:10;;;;;;;;;;;2.30;99.90;;;;;;5011082;28;215962;-70
2023/03/15 01:06:37;;;;;;;;;;;2.30;99.90;;;;;;5047711;28;20386;-70
2023/03/15 01:09:03;;;;;;;;;;;2.30;99.90;;;;;;5011994;28;209425;-70
2023/03/15 01:11:29;;;;;;;;;;;2.30;99.90;;;;;;5065759;28;19950;-69
2023/03/15 01:13:56;;;;;;;;;;;2.20;99.90;;;;;;5009663;28;206441;-70
2023/03/15 01:16:22;;;;;;;;;;;2.20;99.90;;;;;;5060293;28;19943;-70
2023/03/15 01:18:50;;;;;;;;;;;2.20;99.90;;;;;;5010701;28;209887;-70
2023/03/15 01:21:16;;;;;;;;;;;2.10;99.90;;;;;;5032621;28;20308;-69
2023/03/15 01:23:42;;;;;;;;;;;2.10;99.90;;;;;;5000330;28;209723;-70
2023/03/15 01:26:09;;;;;;;;;;;2.10;99.90;;;;;;5065600;28;19924;-69
2023/03/15 01:28:35;;;;;;;;;;;2.10;99.90;;;;;;5044623;28;217706;-70
2023/03/15 01:31:01;;;;;;;;;;;2.00;99.90;;;;;;5029608;28;269670;-70
2023/03/15 01:33:27;;;;;;;;;;;2.00;99.90;;;;;;5091659;28;19935;-70
2023/03/15 01:36:01;;;;;;;;;;;2.00;99.90;;;;;;5020480;28;207028;-70
2023/03/15 01:38:27;;;;;;;;;;;2.00;99.90;;;;;;5056328;28;19929;-71
2023/03/15 01:40:52;;;;;;;;;;;2.00;99.90;;;;;;4995411;28;208439;-70
2023/03/15 01:43:22;;;;;;;;;;;2.00;99.90;;;;;;5055675;28;19973;-70
2023/03/15 01:45:52;;;;;;;;;;;2.00;99.90;;;;;;5023066;28;214975;-70
2023/03/15 01:48:20;;;;;;;;;;;1.90;99.90;;;;;;5064525;28;19928;-70
2023/03/15 01:50:46;;;;;;;;;;;1.90;99.90;;;;;;5018432;28;215863;-71
2023/03/15 01:53:11;;;;;;;;;;;1.90;99.90;;;;;;5093030;28;20423;-70
2023/03/15 01:55:38;;;;;;;;;;;1.90;99.90;;;;;;5010817;28;216921;-70
2023/03/15 01:58:05;;;;;;;;;;;1.90;99.90;;;;;;5060939;28;19925;-70
2023/03/15 02:00:31;;;;;;;;;;;1.80;99.90;;;;;;5030774;27;209567;-70
2023/03/15 02:03:08;;;;;;;;;;;1.80;99.90;;;;;;5077570;28;19924;-70
2023/03/15 02:05:35;;;;;;;;;;;1.80;99.90;;;;;;4984989;28;208970;-70
2023/03/15 02:08:03;;;;;;;;;;;1.80;99.90;;;;;;5078126;28;19950;-70
2023/03/15 02:10:32;;;;;;;;;;;1.70;99.90;;;;;;5017554;28;208649;-70
2023/03/15 02:12:58;;;;;;;;;;;1.70;99.90;;;;;;5062080;28;19940;-70
2023/03/15 02:15:24;;;;;;;;;;;1.70;99.90;;;;;;5019411;28;209218;-70
2023/03/15 02:17:50;;;;;;;;;;;1.70;99.90;;;;;;5058712;28;19929;-70
2023/03/15 02:20:26;;;;;;;;;;;1.80;99.90;;;;;;4969082;28;207492;-70
2023/03/15 02:23:05;;;;;;;;;;;1.70;99.90;;;;;;5057497;28;19921;-70
2023/03/15 02:25:40;;;;;;;;;;;1.70;99.90;;;;;;5000245;28;209851;-70
2023/03/15 02:28:08;;;;;;;;;;;1.70;99.90;;;;;;5054561;28;19928;-70
2023/03/15 02:30:34;;;;;;;;;;;1.70;99.90;;;;;;4988152;28;207590;-70
2023/03/15 02:33:02;;;;;;;;;;;1.70;99.90;;;;;;5059228;28;19927;-70
2023/03/15 02:35:30;;;;;;;;;;;1.60;99.90;;;;;;5008255;28;211622;-70
2023/03/15 02:37:57;;;;;;;;;;;1.60;99.90;;;;;;5061130;28;19924;-70
2023/03/15 02:40:24;;;;;;;;;;;1.60;99.90;;;;;;5002733;28;209812;-70
2023/03/15 02:42:51;;;;;;;;;;;1.60;99.90;;;;;;5061843;28;19924;-70
2023/03/15 02:45:18;;;;;;;;;;;1.60;99.90;;;;;;5036664;28;209198;-70
2023/03/15 02:47:44;;;;;;;;;;;1.60;99.90;;;;;;5079121;28;19931;-70
2023/03/15 02:50:10;;;;;;;;;;;1.50;99.90;;;;;;5011294;28;213125;-70
2023/03/15 02:52:36;;;;;;;;;;;1.60;99.90;;;;;;5062404;28;19932;-70
2023/03/15 02:55:02;;;;;;;;;;;1.50;99.90;;;;;;5012341;28;216264;-70
2023/03/15 02:57:28;;;;;;;;;;;1.60;99.90;;;;;;5070234;28;19928;-70
2023/03/15 02:59:55;;;;;;;;;;;1.50;99.90;;;;;;5015437;28;209498;-70
2023/03/15 03:02:22;;;;;;;;;;;1.50;99.90;;;;;;5054930;28;19942;-70
2023/03/15 03:04:48;;;;;;;;;;;1.40;99.90;;;;;;4986509;28;164376;-71
2023/03/15 03:07:14;;;;;;;;;;;1.30;99.90;;;;;;5048641;28;19924;-70
2023/03/15 03:09:40;;;;;;;;;;;1.30;99.90;;;;;;5002976;28;208814;-71
2023/03/15 03:12:06;;;;;;;;;;;1.20;99.90;;;;;;5069695;28;20006;-70
2023/03/15 03:14:32;;;;;;;;;;;1.20;99.90;;;;;;5026199;28;212529;-70
2023/03/15 03:16:58;;;;;;;;;;;1.20;99.90;;;;;;5074641;28;19924;-70
2023/03/15 03:19:24;;;;;;;;;;;1.20;99.90;;;;;;5013271;28;132859;-70
2023/03/15 03:21:52;;;;;;;;;;;1.20;99.90;;;;;;5083733;28;19924;-70
2023/03/15 03:24:18;;;;;;;;;;;1.20;99.90;;;;;;5028875;28;212882;-70
2023/03/15 03:26:47;;;;;;;;;;;1.20;99.90;;;;;;5061086;28;20020;-70
2023/03/15 03:29:16;;;;;;;;;;;1.10;99.90;;;;;;5004622;28;206781;-70
2023/03/15 03:31:43;;;;;;;;;;;1.10;99.90;;;;;;5066847;28;19924;-70
2023/03/15 03:34:09;;;;;;;;;;;1.10;99.90;;;;;;5011472;28;209616;-70
2023/03/15 03:36:35;;;;;;;;;;;1.00;99.90;;;;;;5054248;28;19920;-70
2023/03/15 03:39:02;;;;;;;;;;;1.00;99.90;;;;;;5005931;28;235896;-70
2023/03/15 03:41:27;;;;;;;;;;;0.90;99.90;;;;;;5044212;28;19928;-70
2023/03/15 03:43:53;;;;;;;;;;;0.90;99.90;;;;;;4994854;28;218530;-70
2023/03/15 03:46:19;;;;;;;;;;;0.90;99.90;;;;;;5054744;28;19920;-70
2023/03/15 03:48:45;;;;;;;;;;;0.90;99.90;;;;;;5019391;28;211847;-70
2023/03/15 03:51:11;;;;;;;;;;;0.80;99.90;;;;;;5075181;28;19928;-70
2023/03/15 03:53:37;;;;;;;;;;;0.90;99.90;;;;;;5015104;28;212139;-70
2023/03/15 03:56:06;;;;;;;;;;;0.90;99.90;;;;;;5037444;28;21739;-70
2023/03/15 03:58:32;;;;;;;;;;;0.90;99.90;;;;;;5064524;28;211112;-70
2023/03/15 04:00:58;;;;;;;;;;;0.90;99.90;;;;;;5040007;28;170905;-70
2023/03/15 04:03:26;;;;;;;;;;;0.90;99.90;;;;;;5079088;28;20019;-70
2023/03/15 04:05:53;;;;;;;;;;;0.90;99.90;;;;;;4986117;28;209396;-71
2023/03/15 04:08:20;;;;;;;;;;;0.90;99.90;;;;;;5055429;28;20385;-71
2023/03/15 04:10:48;;;;;;;;;;;0.90;99.90;;;;;;5029282;28;208235;-71
2023/03/15 04:13:14;;;;;;;;;;;0.90;99.90;;;;;;5079368;28;19921;-70
2023/03/15 04:15:40;;;;;;;;;;;0.90;99.90;;;;;;5016794;28;209890;-70
2023/03/15 04:18:06;;;;;;;;;;;1.00;99.90;;;;;;5062655;28;19924;-70
2023/03/15 04:20:33;;;;;;;;;;;1.00;99.90;;;;;;5005452;28;209513;-70
2023/03/15 04:22:59;;;;;;;;;;;0.90;99.90;;;;;;5056772;28;19924;-70
2023/03/15 04:25:26;;;;;;;;;;;1.00;99.90;;;;;;5022870;28;205424;-70
2023/03/15 04:27:58;;;;;;;;;;;0.90;99.90;;;;;;5043771;28;19925;-70
2023/03/15 04:30:25;;;;;;;;;;;0.90;99.90;;;;;;5018521;28;206861;-70
2023/03/15 04:32:57;;;;;;;;;;;0.90;99.90;;;;;;5058223;28;19928;-70
2023/03/15 04:35:24;;;;;;;;;;;0.90;99.90;;;;;;5015375;28;208436;-70
2023/03/15 04:37:50;;;;;;;;;;;0.90;99.90;;;;;;5054755;28;20557;-70
2023/03/15 04:40:16;;;;;;;;;;;0.90;99.90;;;;;;5004307;28;206167;-71
2023/03/15 04:42:42;;;;;;;;;;;0.90;99.90;;;;;;5045705;28;19929;-70
2023/03/15 04:45:08;;;;;;;;;;;0.80;99.90;;;;;;5010469;28;213227;-71
2023/03/15 04:47:34;;;;;;;;;;;0.80;99.90;;;;;;5043789;28;20003;-70
2023/03/15 04:50:00;;;;;;;;;;;0.70;99.90;;;;;;5013920;28;206469;-69
2023/03/15 04:52:26;;;;;;;;;;;0.70;99.90;;;;;;5076153;28;19924;-70
2023/03/15 04:54:52;;;;;;;;;;;0.70;99.90;;;;;;5022209;27;207292;-70
2023/03/15 04:57:18;;;;;;;;;;;0.60;99.90;;;;;;5084756;28;20301;-71
2023/03/15 04:59:44;;;;;;;;;;;0.60;99.90;;;;;;5028604;28;210397;-71
2023/03/15 05:02:09;;;;;;;;;;;0.50;99.90;;;;;;5070831;28;20330;-70
2023/03/15 05:04:35;;;;;;;;;;;0.50;99.90;;;;;;5007230;28;190860;-71
2023/03/15 05:07:01;;;;;;;;;;;0.50;99.90;;;;;;5044391;28;19944;-70
2023/03/15 05:09:27;;;;;;;;;;;0.50;99.90;;;;;;5000794;28;206103;-71
2023/03/15 05:11:53;;;;;;;;;;;0.60;99.90;;;;;;5038029;28;20024;-70
2023/03/15 05:14:19;;;;;;;;;;;0.60;99.90;;;;;;4997532;28;211421;-70
2023/03/15 05:16:47;;;;;;;;;;;0.60;99.90;;;;;;5063451;28;19927;-70
2023/03/15 05:19:13;;;;;;;;;;;0.60;99.90;;;;;;5023230;28;209061;-70
2023/03/15 05:21:39;;;;;;;;;;;0.60;99.90;;;;;;5067036;28;19928;-70
2023/03/15 05:24:04;;;;;;;;;;;0.60;99.90;;;;;;5003856;28;213328;-70
2023/03/15 05:26:30;;;;;;;;;;;0.60;99.90;;;;;;5072443;28;19921;-71
2023/03/15 05:28:56;;;;;;;;;;;0.60;99.90;;;;;;5011559;28;207031;-70
2023/03/15 05:31:22;;;;;;;;;;;0.60;99.90;;;;;;5055192;28;20463;-70
2023/03/15 05:33:48;;;;;;;;;;;0.60;99.90;;;;;;5008598;28;208291;-70
2023/03/15 05:36:14;;;;;;;;;;;0.50;99.90;;;;;;5052144;28;19920;-70
2023/03/15 05:38:40;;;;;;;;;;;0.60;99.90;;;;;;5018933;28;211594;-70
2023/03/15 05:41:07;;;;;;;;;;;0.60;99.90;;;;;;5078510;28;19920;-69
2023/03/15 05:43:33;;;;;;;;;;;0.60;99.90;;;;;;5061339;28;208380;-70
2023/03/15 05:45:59;;;;;;;;;;;0.60;99.90;;;;;;5025189;28;208389;-69
2023/03/15 05:48:26;;;;;;;;;;;0.60;99.90;;;;;;5076095;28;19920;-69
2023/03/15 05:50:52;;;;;;;;;;;0.60;99.90;;;;;;4996557;28;206544;-70
2023/03/15 05:53:18;;;;;;;;;;;0.60;99.90;;;;;;5079198;28;20034;-70
2023/03/15 05:55:44;;;;;;;;;;;0.60;99.90;;;;;;5012151;28;209105;-70
2023/03/15 05:58:10;;;;;;;;;;;0.60;99.90;;;;;;5060298;28;20273;-69
2023/03/15 06:00:36;;;;;;;;;;;0.60;99.90;;;;;;5005236;28;215082;-69
2023/03/15 06:03:02;;;;;;;;;;;0.60;99.90;;;;;;5078646;28;19920;-71
2023/03/15 06:05:28;;;;;;;;;;;0.60;99.90;;;;;;4990322;28;206776;-71
2023/03/15 06:07:54;;;;;;;;;;;0.60;99.90;;;;;;5078280;28;20368;-70
2023/03/15 06:10:20;;;;;;;;;;;0.50;99.90;;;;;;4999392;28;208997;-70
2023/03/15 06:12:46;;;;;;;;;;;0.50;99.90;;;;;;5081106;28;19934;-70
2023/03/15 06:15:12;;;;;;;;;;;0.50;99.90;;;;;;5027641;28;204349;-70
2023/03/15 06:17:38;;;;;;;;;;;0.60;99.90;;;;;;5091064;28;19939;-70
2023/03/15 06:20:04;;;;;;;;;;;0.60;99.90;;;;;;5009341;28;202260;-70
2023/03/15 06:22:30;;;;;;;;;;;0.60;99.90;;;;;;5057465;28;19929;-70
2023/03/15 06:24:56;;;;;;;;;;;0.60;99.90;;;;;;4979697;28;210003;-69
2023/03/15 06:27:22;;;;;;;;;;;0.60;99.90;;;;;;5052070;28;19924;-70
2023/03/15 06:29:49;;;;;;;;;;;0.60;99.90;;;;;;4991235;28;207178;-70
2023/03/15 06:32:15;;;;;;;;;;;0.60;99.90;;;;;;5072898;28;19928;-70
2023/03/15 06:34:40;;;;;;;;;;;0.60;99.90;;;;;;5011657;28;206106;-71
2023/03/15 06:37:06;;;;;;;;;;;0.60;99.90;;;;;;5075784;28;19924;-71
2023/03/15 06:39:33;;;;;;;;;;;0.60;99.90;;;;;;5025092;28;209957;-70
2023/03/15 06:42:01;;;;;;;;;;;0.70;99.90;;;;;;5076623;28;19928;-70
2023/03/15 06:44:27;;;;;;;;;;;0.70;99.90;;;;;;5025395;28;214388;-70
2023/03/15 06:46:53;;;;;;;;;;;0.70;99.90;;;;;;5052327;28;19943;-71
2023/03/15 06:49:19;;;;;;;;;;;0.80;99.90;;;;;;5005229;28;207993;-71
2023/03/15 06:51:45;;;;;;;;;;;0.80;99.90;;;;;;5065671;28;19921;-70
2023/03/15 06:54:11;;;;;;;;;;;0.80;99.90;;;;;;4995183;28;228475;-71
2023/03/15 06:56:37;;;;;;;;;;;0.80;99.90;;;;;;5023093;28;20014;-71
2023/03/15 06:59:03;;;;;;;;;;;0.80;99.90;;;;;;5011000;28;211465;-71
2023/03/15 07:01:29;;;;;;;;;;;0.90;99.90;;;;;;5067984;28;19928;-70
2023/03/15 07:03:55;;;;;;;;;;;0.90;99.90;;;;;;4994192;28;196999;-68
2023/03/15 07:06:21;;;;;;;;;;;0.90;99.90;;;;;;5067652;28;19928;-69
2023/03/15 07:08:47;;;;;;;;;;;1.00;99.90;;;;;;5014459;28;210424;-70
2023/03/15 07:11:13;;;;;;;;;;;1.00;99.90;;;;;;5059491;28;19931;-70
2023/03/15 07:13:39;;;;;;;;;;;1.10;99.90;;;;;;5010222;28;209804;-70
2023/03/15 07:16:05;;;;;;;;;;;1.20;99.90;;;;;;5093111;28;20394;-70
2023/03/15 07:18:33;;;;;;;;;;;1.20;99.90;;;;;;5053009;28;209385;-70
2023/03/15 07:21:00;;;;;;;;;;;1.30;99.90;;;;;;5028867;28;46283;-71
2023/03/15 07:23:26;;;;;;;;;;;1.40;99.90;;;;;;5084493;28;19924;-71
2023/03/15 07:25:53;;;;;;;;;;;1.40;99.90;;;;;;5023484;28;206630;-71
2023/03/15 07:28:19;;;;;;;;;;;1.50;99.90;;;;;;5085689;28;19951;-71
2023/03/15 07:31:12;;;;;;;;;;;1.60;99.90;;;;;;5041680;28;208535;-70
2023/03/15 07:33:38;;;;;;;;;;;1.60;99.90;;;;;;5030837;28;212941;-70
2023/03/15 07:36:04;;;;;;;;;;;1.60;99.90;;;;;;5052783;28;19920;-70
2023/03/15 07:38:30;;;;;;;;;;;1.70;99.90;;;;;;5053536;28;19928;-70
2023/03/15 07:40:57;;;;;;;;;;;1.80;99.90;;;;;;4990969;28;182045;-70
2023/03/15 07:43:23;;;;;;;;;;;1.90;99.90;;;;;;5062090;28;19925;-70
2023/03/15 07:45:49;;;;;;;;;;;2.00;99.90;;;;;;5000095;28;213449;-71
2023/03/15 07:48:16;;;;;;;;;;;2.00;99.90;;;;;;5060368;28;19927;-71
2023/03/15 07:50:41;;;;;;;;;;;2.20;99.90;;;;;;5020270;28;209425;-72
2023/03/15 07:53:07;;;;;;;;;;;2.20;99.90;;;;;;5059206;28;19930;-70
2023/03/15 07:55:34;;;;;;;;;;;2.30;99.90;;;;;;5020110;28;208690;-71
2023/03/15 07:58:00;;;;;;;;;;;2.40;99.90;;;;;;5077244;28;19924;-72
2023/03/15 08:00:26;;;;;;;;;;;2.40;99.90;;;;;;5019383;28;118338;-73
2023/03/15 08:02:52;;;;;;;;;;;2.50;99.90;;;;;;5075799;28;19921;-71
2023/03/15 08:05:18;;;;;;;;;;;2.60;99.90;;;;;;5018077;28;211439;-71
2023/03/15 08:07:45;;;;;;;;;;;2.70;99.90;;;;;;5076894;28;19924;-72
2023/03/15 08:10:11;;;;;;;;;;;2.80;99.90;;;;;;5007447;28;206742;-72
2023/03/15 08:12:39;;;;;;;;;;;2.80;99.90;;;;;;5084900;28;19920;-71
2023/03/15 08:15:05;;;;;;;;;;;2.90;99.90;;;;;;5007644;28;208903;-72
2023/03/15 08:17:31;;;;;;;;;;;3.00;99.90;;;;;;5060833;28;20317;-72
2023/03/15 08:19:57;;;;;;;;;;;3.10;99.90;;;;;;5004325;28;209269;-72
2023/03/15 08:22:23;;;;;;;;;;;3.30;99.90;;;;;;5046237;28;19931;-70
2023/03/15 08:24:52;;;;;;;;;;;3.40;99.90;;;;;;5029764;28;208411;-71
2023/03/15 08:27:18;;;;;;;;;;;3.50;99.90;;;;;;5088191;28;19924;-71
2023/03/15 08:29:44;;;;;;;;;;;3.50;99.90;;;;;;4991013;28;206933;-71
2023/03/15 08:32:09;;;;;;;;;;;3.60;99.90;;;;;;5042733;28;20388;-71
2023/03/15 08:34:35;;;;;;;;;;;3.60;99.90;;;;;;4994999;28;211448;-71
2023/03/15 08:37:01;;;;;;;;;;;3.60;99.90;;;;;;5034665;28;19956;-71
2023/03/15 08:39:27;;;;;;;;;;;3.70;99.90;;;;;;5007110;28;209303;-71
2023/03/15 08:41:53;;;;;;;;;;;3.70;99.90;;;;;;5066720;28;19924;-71
2023/03/15 08:44:19;;;;;;;;;;;3.70;99.90;;;;;;5007446;28;209542;-70
2023/03/15 08:46:45;;;;;;;;;;;3.80;99.90;;;;;;5052877;28;19924;-71
2023/03/15 08:49:11;;;;;;;;;;;3.80;99.90;;;;;;5013645;28;144739;-72
2023/03/15 08:51:37;;;;;;;;;;;3.90;99.90;;;;;;5058112;28;20484;-71
2023/03/15 08:54:04;;;;;;;;;;;4.00;99.90;;;;;;5005281;28;214395;-72
2023/03/15 08:56:31;;;;;;;;;;;4.10;99.90;;;;;;5021680;28;19929;-72
2023/03/15 08:58:57;;;;;;;;;;;4.10;99.90;;;;;;5008516;28;205107;-71
2023/03/15 09:01:23;;;;;;;;;;;4.30;99.90;;;;;;5055389;28;19921;-71
2023/03/15 09:03:49;;;;;;;;;;;4.60;99.90;;;;;;4986778;28;208502;-71
2023/03/15 09:06:15;;;;;;;;;;;5.20;99.90;;;;;;5070138;28;19932;-71
2023/03/15 09:08:41;;;;;;;;;;;5.80;99.90;;;;;;4996799;28;215227;-71
2023/03/15 09:11:07;;;;;;;;;;;6.50;99.90;;;;;;5069146;28;20266;-70
2023/03/15 09:13:33;;;;;;;;;;;6.90;99.90;;;;;;5057104;28;208646;-71
2023/03/15 09:15:59;;;;;;;;;;;7.20;99.90;;;;;;5036387;28;51827;-69
2023/03/15 09:18:24;;;;;;;;;;;6.60;99.90;;;;;;5064120;28;19940;-70
2023/03/15 09:20:50;;;;;;;;;;;6.10;99.90;;;;;;5003913;28;187623;-71
2023/03/15 09:23:16;;;;;;;;;;;6.70;99.90;;;;;;5059879;28;19928;-70
2023/03/15 09:25:42;;;;;;;;;;;7.70;99.90;;;;;;4987452;28;212983;-70
2023/03/15 09:28:09;;;;;;;;;;;8.20;99.90;;;;;;5069201;28;19926;-70
2023/03/15 09:30:35;;;;;;;;;;;8.80;99.90;;;;;;5021224;28;209454;-70
2023/03/15 09:33:02;;;;;;;;;;;9.50;99.90;;;;;;5079916;28;19924;-70
2023/03/15 09:35:28;;;;;;;;;;;9.30;99.90;;;;;;5011850;28;166937;-69
2023/03/15 09:37:54;;;;;;;;;;;9.50;99.70;;;;;;5065181;28;19924;-70
2023/03/15 09:40:28;;;;;;;;;;;9.80;99.90;;;;;;5031345;28;208626;-71
2023/03/15 09:43:00;;;;;;;;;;;10.20;99.90;;;;;;5068328;28;20321;-70
2023/03/15 09:45:28;;;;;;;;;;;10.50;99.60;;;;;;5024854;28;209760;-70
2023/03/15 09:48:10;;;;;;;;;;;10.20;97.90;;;;;;5059111;28;20531;-70
2023/03/15 09:50:39;;;;;;;;;;;10.10;97.70;;;;;;5015169;28;207948;-70
2023/03/15 09:53:25;;;;;;;;;;;9.70;98.30;;;;;;5059504;28;20281;-69
2023/03/15 09:55:51;;;;;;;;;;;9.60;98.70;;;;;;5043288;28;206994;-69
2023/03/15 09:58:20;;;;;;;;;;;10.20;97.00;;;;;;5082794;28;19952;-69
2023/03/15 10:00:48;;;;;;;;;;;10.30;98.10;;;;;;5011453;28;208859;-70
2023/03/15 10:03:23;;;;;;;;;;;11.10;97.40;;;;;;5077132;28;19931;-69
2023/03/15 10:05:53;;;;;;;;;;;11.40;96.50;;;;;;4977775;28;208310;-69
2023/03/15 10:08:19;;;;;;;;;;;11.50;97.00;;;;;;5064638;28;19925;-69
2023/03/15 10:10:53;;;;;;;;;;;11.80;96.50;;;;;;5031557;28;211393;-69
2023/03/15 10:13:37;;;;;;;;;;;11.90;96.30;;;;;;5065423;28;20384;-68
2023/03/15 10:16:03;;;;;;;;;;;12.10;96.60;;;;;;4986127;28;112491;-68
2023/03/15 10:18:44;;;;;;;;;;;12.50;96.40;;;;;;5080041;28;19981;-67
2023/03/15 10:21:20;;;;;;;;;;;12.30;94.70;;;;;;5009279;28;20015;-69
2023/03/15 10:23:51;;;;;;;;;;;11.70;95.30;;;;;;5018202;28;211228;-69
2023/03/15 10:26:19;;;;;;;;;;;10.60;95.70;;;;;;5074320;28;19920;-70
2023/03/15 10:28:46;;;;;;;;;;;11.30;96.10;;;;;;5018842;28;213067;-67
2023/03/15 10:31:13;;;;;;;;;;;11.70;94.90;;;;;;5079999;28;19928;-70
2023/03/15 10:33:40;;;;;;;;;;;11.60;95.00;;;;;;5008256;28;208673;-69
2023/03/15 10:36:22;;;;;;;;;;;11.50;94.60;;;;;;5063152;28;19932;-70
2023/03/15 10:38:49;;;;;;;;;;;11.10;95.50;;;;;;5011400;28;223999;-68
2023/03/15 10:41:33;;;;;;;;;;;10.90;96.60;;;;;;5077297;28;19921;-68
2023/03/15 10:44:01;;;;;;;;;;;11.50;95.70;;;;;;5028448;28;206568;-68
2023/03/15 10:46:27;;;;;;;;;;;11.70;95.50;;;;;;5063589;28;19925;-68
2023/03/15 10:48:58;;;;;;;;;;;11.80;95.10;;;;;;5021352;28;208424;-69
2023/03/15 10:51:32;;;;;;;;;;;11.10;95.50;;;;;;5092334;28;19920;-69
2023/03/15 10:54:00;;;;;;;;;;;10.20;95.50;;;;;;5033382;28;67948;-69
2023/03/15 10:56:29;;;;;;;;;;;10.70;95.30;;;;;;5059751;28;20314;-69
2023/03/15 10:58:56;;;;;;;;;;;11.40;95.60;;;;;;5005656;28;227598;-68
2023/03/15 11:01:23;;;;;;;;;;;11.90;95.00;;;;;;5051063;28;19925;-69
2023/03/15 11:03:59;;;;;;;;;;;12.70;96.00;;;;;;4993578;28;208750;-69
2023/03/15 11:06:27;;;;;;;;;;;13.10;93.80;;;;;;5075228;28;19936;-68
2023/03/15 11:09:06;;;;;;;;;;;12.10;92.90;;;;;;5022915;28;209262;-68
2023/03/15 11:11:50;;;;;;;;;;;11.50;92.50;;;;;;5093783;28;19931;-71
2023/03/15 11:14:16;;;;;;;;;;;10.20;94.60;;;;;;5020310;28;212670;-68
2023/03/15 11:16:45;;;;;;;;;;;9.70;95.20;;;;;;5065404;28;19932;-68
2023/03/15 11:19:14;;;;;;;;;;;10.60;95.60;;;;;;5023593;28;208516;-69
2023/03/15 11:21:41;;;;;;;;;;;10.30;95.10;;;;;;5049390;28;19920;-70
2023/03/15 11:24:14;;;;;;;;;;;9.80;94.70;;;;;;5007434;28;208215;-69
2023/03/15 11:26:42;;;;;;;;;;;9.00;95.30;;;;;;5070599;28;19921;-68
2023/03/15 11:29:14;;;;;;;;;;;8.90;96.20;;;;;;4997537;28;191250;-69
2023/03/15 11:31:40;;;;;;;;;;;9.60;95.60;;;;;;5064989;28;19924;-68
2023/03/15 11:34:06;;;;;;;;;;;10.50;95.60;;;;;;5032297;28;166239;-68
2023/03/15 11:36:37;;;;;;;;;;;11.20;95.30;;;;;;5071726;28;20290;-68
2023/03/15 11:39:04;;;;;;;;;;;11.90;94.90;;;;;;5026967;28;208330;-68
2023/03/15 11:41:48;;;;;;;;;;;11.90;93.90;;;;;;5058614;28;19924;-69
2023/03/15 11:44:36;;;;;;;;;;;11.70;94.50;;;;;;5027444;28;210174;-68
2023/03/15 11:47:15;;;;;;;;;;;11.30;93.70;;;;;;5054871;28;19935;-68
2023/03/15 11:49:43;;;;;;;;;;;11.70;94.30;;;;;;5007591;28;208518;-68
2023/03/15 11:52:09;;;;;;;;;;;12.20;94.10;;;;;;5074360;28;20381;-69
2023/03/15 11:54:35;;;;;;;;;;;12.70;93.10;;;;;;5036530;27;208629;-68
2023/03/15 11:57:05;;;;;;;;;;;13.10;93.70;;;;;;5069080;28;19924;-68
2023/03/15 11:59:32;;;;;;;;;;;13.60;93.30;;;;;;5022175;28;206634;-68
2023/03/15 12:02:27;;;;;;;;;;;13.80;92.20;;;;;;5055677;28;20305;-68
2023/03/15 12:04:53;;;;;;;;;;;13.80;91.00;;;;;;4995024;28;191313;-69
2023/03/15 12:07:22;;;;;;;;;;;13.20;91.40;;;;;;5061492;28;19928;-67
2023/03/15 12:10:03;;;;;;;;;;;13.10;91.00;;;;;;5022246;28;206922;-68
2023/03/15 12:12:29;;;;;;;;;;;12.70;91.30;;;;;;5078347;28;19920;-67
2023/03/15 12:15:01;;;;;;;;;;;12.70;92.80;;;;;;4989523;28;208861;-69
2023/03/15 12:17:27;;;;;;;;;;;13.40;92.00;;;;;;5068224;28;19931;-68
2023/03/15 12:20:08;;;;;;;;;;;13.80;92.50;;;;;;5029761;28;206702;-68
2023/03/15 12:22:34;;;;;;;;;;;14.40;92.60;;;;;;5079863;28;19927;-70
2023/03/15 12:25:07;;;;;;;;;;;14.30;90.40;;;;;;5026575;28;227740;-68
2023/03/15 12:27:34;;;;;;;;;;;14.20;90.20;;;;;;5070199;28;20420;-69
2023/03/15 12:30:01;;;;;;;;;;;13.90;90.70;;;;;;5004384;28;196406;-68
2023/03/15 12:32:28;;;;;;;;;;;13.70;91.00;;;;;;5070789;28;19925;-68
2023/03/15 12:34:56;;;;;;;;;;;14.20;90.30;;;;;;5032746;28;209693;-68
2023/03/15 12:37:21;;;;;;;;;;;13.90;89.90;;;;;;5080973;28;19924;-69
2023/03/15 12:39:58;;;;;;;;;;;13.60;90.00;;;;;;5016748;28;207018;-69
2023/03/15 12:42:30;;;;;;;;;;;13.70;88.60;;;;;;5073579;28;20393;-69
2023/03/15 12:45:14;;;;;;;;;;;13.80;87.90;;;;;;5007997;28;217836;-69
2023/03/15 12:47:52;;;;;;;;;;;13.90;87.60;;;;;;5076222;28;19927;-69
2023/03/15 12:50:49;;;;;;;;;;;13.90;87.80;;;;;;5017179;28;189860;-68
2023/03/15 12:53:38;;;;;;;;;;;14.50;86.50;;;;;;5064748;28;19928;-69
2023/03/15 12:56:23;;;;;;;;;;;14.10;87.40;;;;;;5008632;28;119835;-70
2023/03/15 12:58:52;;;;;;;;;;;14.00;87.30;;;;;;4995317;28;211041;-68
2023/03/15 13:01:18;;;;;;;;;;;14.50;86.20;;;;;;5048097;28;19924;-69
2023/03/15 13:03:44;;;;;;;;;;;15.20;86.60;;;;;;4995483;28;207858;-70
2023/03/15 13:06:15;;;;;;;;;;;15.60;85.70;;;;;;5012401;28;19928;-69
2023/03/15 13:08:47;;;;;;;;;;;15.40;80.90;;;;;;5000977;28;207046;-70
2023/03/15 13:11:24;;;;;;;;;;;14.50;83.20;;;;;;5035569;28;19928;-70
2023/03/15 13:14:08;;;;;;;;;;;13.50;86.60;;;;;;5026039;28;208650;-72
2023/03/15 13:16:43;;;;;;;;;;;13.10;88.30;;;;;;5040213;28;19925;-69
2023/03/15 13:19:15;;;;;;;;;;;13.10;88.80;;;;;;5002920;28;222656;-70
2023/03/15 13:21:57;;;;;;;;;;;13.30;88.30;;;;;;5080656;28;20397;-70
2023/03/15 13:24:31;;;;;;;;;;;13.40;86.90;;;;;;5011535;28;213531;-70
2023/03/15 13:27:03;;;;;;;;;;;13.90;86.20;;;;;;5057379;28;19924;-70
2023/03/15 13:29:30;;;;;;;;;;;14.30;87.10;;;;;;5002259;28;218769;-70
2023/03/15 13:32:15;;;;;;;;;;;14.60;87.10;;;;;;5059363;28;19924;-70
2023/03/15 13:34:44;;;;;;;;;;;14.70;86.00;;;;;;5006737;28;210754;-70
2023/03/15 13:37:11;;;;;;;;;;;14.20;85.90;;;;;;5042730;28;19924;-71
2023/03/15 13:39:37;;;;;;;;;;;14.20;86.60;;;;;;5025658;28;153709;-69
2023/03/15 13:42:04;;;;;;;;;;;14.50;87.00;;;;;;5057639;28;20028;-71
2023/03/15 13:44:32;;;;;;;;;;;13.80;84.90;;;;;;4998343;28;168217;-71
2023/03/15 13:46:58;;;;;;;;;;;14.10;85.30;;;;;;5061822;28;19931;-71
2023/03/15 13:49:29;;;;;;;;;;;14.60;86.60;;;;;;5011685;28;208859;-72
2023/03/15 13:51:55;;;;;;;;;;;15.10;86.30;;;;;;5057420;28;19925;-70
2023/03/15 13:54:29;;;;;;;;;;;15.30;83.50;;;;;;5014904;28;203046;-70
2023/03/15 13:56:58;;;;;;;;;;;14.80;84.90;;;;;;5080842;28;20336;-70
2023/03/15 13:59:33;;;;;;;;;;;14.80;84.00;;;;;;5007388;28;207098;-71
2023/03/15 14:02:01;;;;;;;;;;;15.20;85.60;;;;;;5041766;28;19920;-70
2023/03/15 14:04:27;;;;;;;;;;;15.60;84.70;;;;;;5013692;28;213849;-69
2023/03/15 14:07:12;;;;;;;;;;;15.90;86.30;;;;;;5043966;28;19931;-72
2023/03/15 14:09:38;;;;;;;;;;;16.10;84.60;;;;;;5010201;28;207917;-70
2023/03/15 14:12:05;;;;;;;;;;;16.30;82.00;;;;;;5080216;28;19920;-71
2023/03/15 14:14:35;;;;;;;;;;;15.80;82.80;;;;;;5036575;27;208347;-70
2023/03/15 14:17:05;;;;;;;;;;;15.50;81.90;;;;;;5098179;27;19924;-70
2023/03/15 14:19:34;;;;;;;;;;;15.10;83.40;;;;;;5013017;28;221432;-71
2023/03/15 14:22:03;;;;;;;;;;;15.40;82.80;;;;;;5053091;28;19920;-70
2023/03/15 14:24:36;;;;;;;;;;;15.40;82.20;;;;;;5001552;28;207041;-70